Time;durP1;ratioP1;P1;durP2;ratioP2;P2;SDS_P1;SDS_P2;PMS_P1;PMS_P2;Temp;Humidity;BMP_temperature;BMP_pressure;BME280_temperature;BME280_humidity;BME280_pressure;Samples;Min_cycle;Max_cycle;Signal;HPM_P1;HPM_P2
2023/06/30 00:01:29;;;;;;;6.10;2.92;;;;;;;15.49;100.00;101444.66;5084084;28;20069;-69
2023/06/30 00:03:56;;;;;;;7.85;3.00;;;;;;;15.38;100.00;101439.78;5084462;28;20024;-69
2023/06/30 00:06:24;;;;;;;8.80;3.10;;;;;;;15.33;100.00;101453.03;5077035;28;20103;-69
2023/06/30 00:08:50;;;;;;;9.93;3.25;;;;;;;15.29;100.00;101446.19;5084435;28;20024;-69
2023/06/30 00:11:17;;;;;;;8.88;3.15;;;;;;;15.19;100.00;101448.25;5082490;28;20020;-69
2023/06/30 00:13:43;;;;;;;7.18;3.28;;;;;;;15.16;100.00;101450.97;5081835;28;20043;-69
2023/06/30 00:16:09;;;;;;;8.35;3.35;;;;;;;15.08;100.00;101457.41;5084400;28;20024;-69
2023/06/30 00:18:34;;;;;;;6.93;3.10;;;;;;;15.08;100.00;101449.53;5080972;28;20074;-70
2023/06/30 00:21:00;;;;;;;11.73;3.10;;;;;;;15.02;100.00;101447.97;5083204;28;20150;-69
2023/06/30 00:23:28;;;;;;;9.23;3.63;;;;;;;15.01;100.00;101443.63;5082916;28;20043;-69
2023/06/30 00:25:54;;;;;;;9.73;3.42;;;;;;;15.02;100.00;101447.09;5082290;28;20139;-69
2023/06/30 00:28:20;;;;;;;8.90;3.17;;;;;;;14.98;100.00;101441.09;5084087;28;20537;-69
2023/06/30 00:30:45;;;;;;;5.32;3.05;;;;;;;14.89;100.00;101442.25;5080398;28;20048;-69
2023/06/30 00:33:11;;;;;;;6.13;3.00;;;;;;;14.82;100.00;101430.22;5086304;28;20040;-69
2023/06/30 00:35:36;;;;;;;9.18;3.30;;;;;;;14.78;100.00;101430.34;5080466;28;20032;-69
2023/06/30 00:38:02;;;;;;;10.43;3.30;;;;;;;14.72;100.00;101432.28;5087092;28;20532;-69
2023/06/30 00:40:27;;;;;;;6.03;3.00;;;;;;;14.66;100.00;101434.22;5079680;28;20041;-69
2023/06/30 00:42:52;;;;;;;5.40;2.92;;;;;;;14.64;100.00;101429.00;5075445;28;20465;-69
2023/06/30 00:45:18;;;;;;;9.02;3.47;;;;;;;14.57;100.00;101424.88;5088057;28;20060;-70
2023/06/30 00:47:43;;;;;;;7.32;3.40;;;;;;;14.48;100.00;101432.97;5079452;28;20031;-69
2023/06/30 00:50:10;;;;;;;7.68;3.08;;;;;;;14.43;100.00;101437.53;5088589;28;20502;-69
2023/06/30 00:52:35;;;;;;;11.07;3.67;;;;;;;14.37;100.00;101440.31;5080189;28;20071;-69
2023/06/30 00:55:01;;;;;;;6.82;3.08;;;;;;;14.31;100.00;101435.25;5087368;28;20467;-69
2023/06/30 00:57:26;;;;;;;10.48;3.90;;;;;;;14.27;100.00;101443.22;5081319;28;20040;-69
2023/06/30 00:59:51;;;;;;;6.68;3.30;;;;;;;14.25;100.00;101444.16;5086138;28;20046;-69
2023/06/30 01:02:22;;;;;;;11.70;3.38;;;;;;;14.33;100.00;101436.94;5082525;28;20016;-69
2023/06/30 01:05:02;;;;;;;8.43;3.22;;;;;;;14.40;100.00;101448.09;5080474;28;20027;-69
2023/06/30 01:07:45;;;;;;;8.35;3.67;;;;;;;14.46;100.00;101442.69;5083436;28;20024;-70
2023/06/30 01:10:13;;;;;;;8.17;3.23;;;;;;;14.54;100.00;101445.09;5074968;28;20099;-70
2023/06/30 01:12:40;;;;;;;10.30;3.53;;;;;;;14.52;100.00;101443.38;5086356;28;20031;-70
2023/06/30 01:15:06;;;;;;;8.88;3.40;;;;;;;14.51;100.00;101443.41;5080347;28;20074;-69
2023/06/30 01:17:33;;;;;;;7.70;2.95;;;;;;;14.56;100.00;101438.06;5085486;28;20069;-69
2023/06/30 01:20:00;;;;;;;13.52;3.78;;;;;;;14.50;100.00;101441.69;5080247;28;20070;-69
2023/06/30 01:22:44;;;;;;;10.73;3.17;;;;;;;14.52;100.00;101447.78;5084165;28;20023;-69
2023/06/30 01:25:18;;;;;;;8.73;3.00;;;;;;;14.53;100.00;101444.25;5078205;28;20024;-69
2023/06/30 01:27:44;;;;;;;11.18;3.35;;;;;;;14.55;100.00;101445.06;5086353;28;20024;-69
2023/06/30 01:30:09;;;;;;;8.95;3.22;;;;;;;14.54;100.00;101445.94;5078847;28;20124;-69
2023/06/30 01:32:35;;;;;;;8.25;3.20;;;;;;;14.52;100.00;101442.53;5085354;28;20027;-69
2023/06/30 01:35:00;;;;;;;7.32;3.10;;;;;;;14.43;100.00;101437.53;5081117;28;20067;-69
2023/06/30 01:37:26;;;;;;;7.68;3.28;;;;;;;14.45;100.00;101439.22;5084173;28;20472;-69
2023/06/30 01:39:51;;;;;;;7.15;3.00;;;;;;;14.42;100.00;101443.66;5087025;28;20386;-69
2023/06/30 01:42:18;;;;;;;9.35;3.13;;;;;;;14.34;100.00;101433.41;5083754;28;20031;-69
2023/06/30 01:44:45;;;;;;;10.00;3.00;;;;;;;14.31;100.00;101422.16;5083989;28;20024;-69
2023/06/30 01:47:11;;;;;;;6.50;2.92;;;;;;;14.31;100.00;101424.75;5085116;28;20036;-69
2023/06/30 01:49:36;;;;;;;8.43;2.90;;;;;;;14.26;100.00;101425.78;5088117;28;20031;-69
2023/06/30 01:52:02;;;;;;;4.90;2.97;;;;;;;14.18;100.00;101425.13;5086170;28;20035;-69
2023/06/30 01:54:28;;;;;;;6.78;3.40;;;;;;;14.17;100.00;101418.16;5086280;28;20072;-69
2023/06/30 01:56:53;;;;;;;7.88;2.75;;;;;;;14.07;100.00;101418.50;5086825;28;20081;-69
2023/06/30 01:59:19;;;;;;;4.85;2.92;;;;;;;14.07;100.00;101419.34;5085548;28;20028;-69
2023/06/30 02:01:44;;;;;;;7.50;3.28;;;;;;;14.03;100.00;101420.34;5080352;28;20031;-69
2023/06/30 02:04:10;;;;;;;9.32;2.88;;;;;;;13.92;100.00;101417.16;5079651;28;20031;-69
2023/06/30 02:06:35;;;;;;;8.90;3.00;;;;;;;13.84;100.00;101421.75;5078481;28;20521;-69
2023/06/30 02:09:01;;;;;;;11.05;3.22;;;;;;;13.78;100.00;101418.41;5080070;28;20528;-69
2023/06/30 02:11:26;;;;;;;8.15;3.63;;;;;;;13.65;100.00;101406.53;5090141;28;20512;-69
2023/06/30 02:13:51;;;;;;;8.32;2.97;;;;;;;13.62;100.00;101426.72;5077564;28;20380;-69
2023/06/30 02:16:17;;;;;;;8.60;3.33;;;;;;;13.55;100.00;101416.41;5088574;28;20055;-69
2023/06/30 02:18:43;;;;;;;8.10;3.40;;;;;;;13.49;100.00;101420.94;5083464;28;20032;-68
2023/06/30 02:21:08;;;;;;;7.35;3.15;;;;;;;13.41;100.00;101422.91;5084917;28;20024;-69
2023/06/30 02:23:34;;;;;;;9.05;3.83;;;;;;;13.38;100.00;101426.47;5085914;28;20032;-69
2023/06/30 02:25:59;;;;;;;13.70;3.70;;;;;;;13.17;100.00;101406.88;5083900;28;20027;-69
2023/06/30 02:28:24;;;;;;;10.05;3.50;;;;;;;13.23;100.00;101424.19;5085604;28;20062;-69
2023/06/30 02:30:49;;;;;;;8.20;3.40;;;;;;;13.17;100.00;101430.44;5084242;28;20036;-69
2023/06/30 02:33:18;;;;;;;9.00;3.53;;;;;;;13.09;100.00;101429.78;5085536;28;20068;-69
2023/06/30 02:35:43;;;;;;;8.45;3.70;;;;;;;13.04;100.00;101429.03;5084412;28;20028;-69
2023/06/30 02:38:08;;;;;;;11.48;3.90;;;;;;;12.99;100.00;101425.66;5081903;28;20464;-68
2023/06/30 02:40:36;;;;;;;10.13;3.83;;;;;;;13.02;100.00;101436.06;5085015;28;20033;-69
2023/06/30 02:43:02;;;;;;;7.63;3.60;;;;;;;13.04;100.00;101447.34;5085554;28;20036;-69
2023/06/30 02:45:28;;;;;;;8.05;3.85;;;;;;;12.98;100.00;101444.88;5085353;28;20379;-69
2023/06/30 02:47:53;;;;;;;11.13;3.90;;;;;;;12.87;100.00;101447.75;5085291;28;20479;-69
2023/06/30 02:50:27;;;;;;;6.53;3.78;;;;;;;12.80;100.00;101456.63;5084941;28;20028;-69
2023/06/30 02:52:53;;;;;;;10.50;4.20;;;;;;;12.77;100.00;101460.19;5087206;28;20063;-69
2023/06/30 02:55:18;;;;;;;10.98;4.10;;;;;;;12.68;100.00;101456.91;5082990;28;20063;-69
2023/06/30 02:57:43;;;;;;;10.23;4.65;;;;;;;12.68;100.00;101462.13;5085378;28;20015;-69
2023/06/30 03:00:12;;;;;;;7.38;3.65;;;;;;;12.58;100.00;101453.63;5083205;28;20485;-69
2023/06/30 03:02:37;;;;;;;11.13;4.22;;;;;;;12.57;100.00;101460.63;5067923;28;20039;-69
2023/06/30 03:05:04;;;;;;;8.60;3.70;;;;;;;12.55;100.00;101461.53;5084765;28;20016;-69
2023/06/30 03:07:30;;;;;;;11.88;4.13;;;;;;;12.44;100.00;101455.69;5077991;28;20037;-69
2023/06/30 03:09:55;;;;;;;7.03;4.03;;;;;;;12.38;100.00;101459.28;5085534;28;20166;-69
2023/06/30 03:12:21;;;;;;;9.55;3.97;;;;;;;12.33;100.00;101455.94;5082279;28;20045;-69
2023/06/30 03:14:46;;;;;;;9.85;3.90;;;;;;;12.25;100.00;101453.47;5089188;28;20033;-69
2023/06/30 03:17:11;;;;;;;12.40;5.60;;;;;;;12.19;100.00;101458.81;5081361;28;20371;-69
2023/06/30 03:19:37;;;;;;;9.20;4.25;;;;;;;12.11;100.00;101452.88;5089061;28;20074;-69
2023/06/30 03:22:02;;;;;;;6.20;4.53;;;;;;;12.09;100.00;101457.28;5074552;28;20523;-69
2023/06/30 03:24:27;;;;;;;13.50;5.05;;;;;;;12.04;100.00;101453.91;5087846;28;20024;-69
2023/06/30 03:26:53;;;;;;;7.82;4.50;;;;;;;12.00;100.00;101447.88;5082347;28;20115;-69
2023/06/30 03:29:18;;;;;;;9.27;4.28;;;;;;;11.93;100.00;101433.19;5085469;28;20051;-69
2023/06/30 03:31:43;;;;;;;12.60;4.43;;;;;;;11.95;100.00;101437.50;5084701;28;20418;-69
2023/06/30 03:34:11;;;;;;;9.05;4.80;;;;;;;11.93;100.00;101441.91;5084318;28;20030;-69
2023/06/30 03:36:36;;;;;;;10.88;4.57;;;;;;;11.91;100.00;101438.47;5083883;28;20519;-69
2023/06/30 03:39:02;;;;;;;7.72;4.78;;;;;;;11.73;100.00;101418.72;5084082;28;20120;-69
2023/06/30 03:41:28;;;;;;;8.18;4.50;;;;;;;11.85;100.00;101443.81;5084250;28;20024;-69
2023/06/30 03:43:53;;;;;;;9.05;5.07;;;;;;;11.81;100.00;101436.03;5083684;28;20034;-69
2023/06/30 03:46:18;;;;;;;8.70;4.50;;;;;;;11.80;100.00;101435.16;5084274;28;20032;-69
2023/06/30 03:48:43;;;;;;;10.98;5.13;;;;;;;11.76;100.00;101435.25;5084192;28;20024;-69
2023/06/30 03:51:09;;;;;;;6.82;4.75;;;;;;;11.77;100.00;101437.84;5083401;28;20043;-69
2023/06/30 03:53:34;;;;;;;9.27;4.82;;;;;;;11.75;100.00;101437.00;5084193;28;20024;-69
2023/06/30 03:56:00;;;;;;;6.25;4.68;;;;;;;11.73;100.00;101434.41;5085586;28;20024;-69
2023/06/30 03:58:26;;;;;;;14.52;5.85;;;;;;;11.64;100.00;101418.94;5082378;28;20029;-69
2023/06/30 04:00:51;;;;;;;13.32;6.82;;;;;;;11.75;100.00;101431.78;5086535;28;20077;-69
2023/06/30 04:03:16;;;;;;;9.38;5.28;;;;;;;11.82;100.00;101432.53;5081128;28;20056;-69
2023/06/30 04:05:42;;;;;;;10.85;5.10;;;;;;;11.82;100.00;101433.38;5083315;28;20081;-69
2023/06/30 04:08:07;;;;;;;9.43;4.70;;;;;;;11.84;100.00;101430.75;5080555;28;20055;-69
2023/06/30 04:10:32;;;;;;;9.82;4.80;;;;;;;11.81;100.00;101436.88;5077555;28;20029;-69
2023/06/30 04:12:58;;;;;;;8.23;4.53;;;;;;;11.85;100.00;101443.81;5083615;28;20039;-69
2023/06/30 04:15:23;;;;;;;8.07;5.30;;;;;;;11.85;100.00;101448.16;5083200;28;20376;-69
2023/06/30 04:17:48;;;;;;;7.40;4.80;;;;;;;11.82;100.00;101443.81;5083600;28;20445;-69
2023/06/30 04:20:15;;;;;;;8.95;5.57;;;;;;;11.85;100.00;101443.81;5084762;28;20032;-69
2023/06/30 04:22:41;;;;;;;10.10;5.25;;;;;;;11.85;100.00;101449.03;5081421;28;20494;-69
2023/06/30 04:25:07;;;;;;;9.60;5.20;;;;;;;11.90;100.00;101451.53;5087597;28;20115;-69
2023/06/30 04:27:32;;;;;;;9.25;5.15;;;;;;;11.95;100.00;101450.56;5079740;28;20107;-69
2023/06/30 04:29:57;;;;;;;13.90;5.25;;;;;;;11.97;100.00;101441.81;5088088;28;20136;-69
2023/06/30 04:32:23;;;;;;;10.85;5.25;;;;;;;11.98;100.00;101433.97;5073420;28;20039;-69
2023/06/30 04:34:49;;;;;;;9.45;5.10;;;;;;;12.02;100.00;101434.78;5088772;28;20131;-69
2023/06/30 04:37:15;;;;;;;9.73;5.60;;;;;;;11.98;100.00;101436.59;5080615;28;20459;-69
2023/06/30 04:39:43;;;;;;;8.25;4.90;;;;;;;12.07;100.00;101435.56;5086106;28;20139;-69
2023/06/30 04:42:08;;;;;;;11.32;5.30;;;;;;;12.11;100.00;101438.06;5081511;28;20540;-69
2023/06/30 04:44:34;;;;;;;13.60;5.90;;;;;;;12.15;100.00;101437.09;5085565;28;20099;-69
2023/06/30 04:47:00;;;;;;;9.52;5.35;;;;;;;12.23;100.00;101436.97;5082597;28;20531;-69
2023/06/30 04:49:25;;;;;;;10.55;5.80;;;;;;;12.27;100.00;101437.75;5083359;28;20464;-69
2023/06/30 04:51:51;;;;;;;9.75;5.43;;;;;;;12.31;100.00;101439.41;5083995;28;20024;-69
2023/06/30 04:54:19;;;;;;;9.43;5.28;;;;;;;12.35;100.00;101447.13;5081344;28;20063;-69
2023/06/30 04:56:44;;;;;;;8.15;5.68;;;;;;;12.39;100.00;101440.09;5082891;28;20030;-69
2023/06/30 04:59:10;;;;;;;13.93;5.80;;;;;;;12.45;100.00;101449.56;5083749;28;20020;-69
2023/06/30 05:01:35;;;;;;;12.45;5.07;;;;;;;12.42;100.00;101426.94;5080099;28;20020;-69
2023/06/30 05:04:00;;;;;;;7.85;5.63;;;;;;;12.56;100.00;101434.53;5083721;28;20072;-69
2023/06/30 05:06:26;;;;;;;12.00;5.57;;;;;;;12.70;100.00;101442.06;5078545;28;20074;-69
2023/06/30 05:08:51;;;;;;;9.68;5.45;;;;;;;12.76;100.00;101434.06;5082906;28;20024;-69
2023/06/30 05:11:17;;;;;;;8.60;4.95;;;;;;;12.88;100.00;101434.63;5080616;28;20086;-69
2023/06/30 05:13:42;;;;;;;13.15;5.60;;;;;;;12.99;100.00;101436.13;5085838;28;20551;-69
2023/06/30 05:16:10;;;;;;;10.98;5.95;;;;;;;13.02;100.00;101433.44;5086902;28;20036;-69
2023/06/30 05:18:36;;;;;;;10.68;5.43;;;;;;;13.13;100.00;101437.50;5078322;28;20028;-69
2023/06/30 05:21:01;;;;;;;7.45;4.72;;;;;;;13.22;100.00;101441.66;5087744;28;20020;-69
2023/06/30 05:23:26;;;;;;;18.98;5.25;;;;;;;13.26;100.00;101435.47;5086238;28;20024;-68
2023/06/30 05:25:51;;;;;;;11.38;5.13;;;;;;;13.37;100.00;101439.59;5086241;28;20032;-68
2023/06/30 05:28:17;;;;;;;8.98;4.95;;;;;;;13.44;100.00;101439.41;5087378;28;20037;-69
2023/06/30 05:30:42;;;;;;;8.68;4.95;;;;;;;13.56;100.00;101439.06;5084879;28;20123;-69
2023/06/30 05:33:07;;;;;;;8.15;4.97;;;;;;;13.57;100.00;101421.63;5081444;28;20020;-69
2023/06/30 05:35:33;;;;;;;7.30;4.65;;;;;;;13.66;100.00;101423.09;5087821;28;20032;-69
2023/06/30 05:37:59;;;;;;;11.05;4.47;;;;;;;13.74;100.00;101432.50;5084381;28;20064;-69
2023/06/30 05:40:25;;;;;;;9.20;4.70;;;;;;;13.84;100.00;101429.63;5090177;28;20095;-69
2023/06/30 05:42:50;;;;;;;10.32;4.93;;;;;;;13.88;100.00;101429.47;5083067;28;20409;-69
2023/06/30 05:45:16;;;;;;;17.85;4.15;;;;;;;14.02;100.00;101436.94;5092177;28;20029;-70
2023/06/30 05:47:42;;;;;;;9.07;4.40;;;;;;;14.01;100.00;101425.59;5083246;28;20115;-69
2023/06/30 05:50:07;;;;;;;10.90;4.78;;;;;;;14.15;100.00;101429.59;5091039;28;20120;-69
2023/06/30 05:52:33;;;;;;;6.72;3.67;;;;;;;14.27;100.00;101435.34;5083031;28;20033;-69
2023/06/30 05:54:59;;;;;;;7.30;4.07;;;;;;;14.31;100.00;101427.38;5083569;28;20108;-69
2023/06/30 05:57:24;;;;;;;6.97;3.63;;;;;;;14.42;100.00;101435.78;5088345;28;20024;-69
2023/06/30 05:59:50;;;;;;;7.35;3.92;;;;;;;14.46;100.00;101437.44;5083131;28;20040;-69
2023/06/30 06:02:15;;;;;;;8.02;3.78;;;;;;;14.53;100.00;101431.13;5089355;28;20027;-69
2023/06/30 06:04:41;;;;;;;9.70;3.95;;;;;;;14.58;100.00;101434.44;5082190;28;20031;-69
2023/06/30 06:07:06;;;;;;;7.15;3.78;;;;;;;14.63;100.00;101432.56;5086611;28;20028;-68
2023/06/30 06:09:32;;;;;;;11.07;3.72;;;;;;;14.70;100.00;101439.31;5084427;28;20027;-69
2023/06/30 06:11:57;;;;;;;11.35;3.95;;;;;;;14.76;100.00;101438.28;5063764;28;20020;-68
2023/06/30 06:14:23;;;;;;;5.80;3.50;;;;;;;14.83;100.00;101437.19;5090244;28;20020;-69
2023/06/30 06:16:48;;;;;;;10.02;4.30;;;;;;;14.89;100.00;101430.88;5083016;28;20035;-69
2023/06/30 06:19:14;;;;;;;6.95;3.50;;;;;;;14.93;100.00;101424.63;5088071;28;20107;-69
2023/06/30 06:21:40;;;;;;;7.07;3.30;;;;;;;14.99;100.00;101427.91;5084597;28;20074;-69
2023/06/30 06:24:07;;;;;;;9.68;3.72;;;;;;;15.07;100.00;101435.53;5081613;28;20418;-69
2023/06/30 06:26:32;;;;;;;7.90;3.67;;;;;;;15.18;100.00;101446.53;5086618;28;20048;-69
2023/06/30 06:28:58;;;;;;;8.18;3.45;;;;;;;15.25;100.00;101452.47;5085323;28;20510;-69
2023/06/30 06:31:24;;;;;;;5.30;3.20;;;;;;;15.33;100.00;101447.78;5086096;28;20035;-69
2023/06/30 06:33:49;;;;;;;7.65;3.65;;;;;;;15.41;98.58;101452.81;5084154;28;20127;-69
2023/06/30 06:36:15;;;;;;;8.88;3.33;;;;;;;15.43;99.54;101435.19;5086105;28;20071;-69
2023/06/30 06:38:40;;;;;;;9.18;3.28;;;;;;;15.50;96.48;101438.47;5085632;28;20051;-69
2023/06/30 06:41:08;;;;;;;6.60;3.45;;;;;;;15.60;97.83;101453.03;5090376;28;20082;-69
2023/06/30 06:43:33;;;;;;;11.20;3.50;;;;;;;15.64;96.81;101452.88;5085470;28;20067;-69
2023/06/30 06:45:59;;;;;;;9.85;3.47;;;;;;;15.67;95.89;101452.78;5084757;28;20052;-69
2023/06/30 06:48:26;;;;;;;6.97;3.17;;;;;;;15.73;96.57;101451.72;5085545;28;20023;-69
2023/06/30 06:50:53;;;;;;;7.70;3.17;;;;;;;15.81;98.18;101451.44;5086737;28;20041;-69
2023/06/30 06:53:25;;;;;;;9.23;3.42;;;;;;;15.85;94.82;101447.78;5078522;28;20039;-69
2023/06/30 06:55:52;;;;;;;7.05;2.97;;;;;;;15.94;94.39;101443.97;5084676;28;20032;-69
2023/06/30 06:58:18;;;;;;;6.35;3.20;;;;;;;15.97;94.89;101442.09;5078299;28;20477;-69
2023/06/30 07:00:49;;;;;;;8.07;3.10;;;;;;;16.01;91.66;101440.22;5084266;28;20046;-69
2023/06/30 07:03:15;;;;;;;5.68;2.65;;;;;;;16.08;91.89;101436.44;5082901;28;20075;-69
2023/06/30 07:05:41;;;;;;;4.55;2.65;;;;;;;16.20;90.19;101453.56;5085277;28;20024;-69
2023/06/30 07:08:07;;;;;;;4.00;2.30;;;;;;;16.23;85.92;101451.66;5082786;28;20498;-69
2023/06/30 07:10:33;;;;;;;11.20;2.40;;;;;;;16.28;84.18;101449.69;5079618;28;20530;-69
2023/06/30 07:13:02;;;;;;;4.70;2.33;;;;;;;16.37;83.05;101448.50;5085319;28;20028;-69
2023/06/30 07:15:28;;;;;;;5.35;2.35;;;;;;;16.43;82.37;101455.31;5083178;28;20368;-69
2023/06/30 07:17:53;;;;;;;6.38;2.65;;;;;;;16.54;81.79;101453.13;5085274;28;20113;-69
2023/06/30 07:20:19;;;;;;;6.00;2.20;;;;;;;16.66;84.29;101451.78;5085526;28;20043;-69
2023/06/30 07:22:44;;;;;;;7.85;2.70;;;;;;;16.74;83.63;101447.06;5082600;28;20028;-69
2023/06/30 07:25:09;;;;;;;6.63;2.08;;;;;;;16.77;77.20;101441.72;5087925;28;20372;-69
2023/06/30 07:27:38;;;;;;;2.58;1.98;;;;;;;16.84;79.54;101453.75;5081330;28;20016;-69
2023/06/30 07:30:05;;;;;;;5.65;2.25;;;;;;;16.84;74.75;101451.13;5073224;28;20047;-69
2023/06/30 07:32:33;;;;;;;8.45;2.20;;;;;;;16.92;76.20;101438.47;5081360;28;20025;-69
2023/06/30 07:35:00;;;;;;;7.75;2.38;;;;;;;17.01;77.28;101451.28;5088697;28;20468;-69
2023/06/30 07:37:25;;;;;;;4.10;1.95;;;;;;;17.14;76.79;101454.28;5077502;28;20025;-69
2023/06/30 07:39:51;;;;;;;4.07;2.25;;;;;;;17.19;73.89;101438.28;5089861;28;20020;-69
2023/06/30 07:42:16;;;;;;;6.32;2.25;;;;;;;17.27;72.02;101442.31;5080677;28;20040;-69
2023/06/30 07:44:41;;;;;;;5.70;2.17;;;;;;;17.47;69.66;101453.78;5087855;28;20631;-69
2023/06/30 07:47:07;;;;;;;4.47;2.00;;;;;;;17.58;74.20;101451.53;5083219;28;20472;-69
2023/06/30 07:49:35;;;;;;;5.40;2.25;;;;;;;17.72;74.30;101449.19;5079941;28;20122;-69
2023/06/30 07:52:00;;;;;;;5.95;1.98;;;;;;;17.74;68.89;101439.41;5087052;28;20024;-69
2023/06/30 07:54:25;;;;;;;4.95;2.03;;;;;;;17.76;68.22;101449.91;5081330;28;20043;-69
2023/06/30 07:56:51;;;;;;;4.72;1.85;;;;;;;17.81;66.29;101440.03;5078192;28;20476;-69
2023/06/30 07:59:16;;;;;;;2.90;2.00;;;;;;;17.81;66.17;101447.09;5084039;28;20042;-69
2023/06/30 08:01:41;;;;;;;8.35;2.38;;;;;;;17.83;69.46;101438.19;5082603;28;20507;-69
2023/06/30 08:04:06;;;;;;;4.88;2.25;;;;;;;17.95;69.19;101440.28;5083716;28;20070;-69
2023/06/30 08:06:32;;;;;;;3.90;1.90;;;;;;;18.13;66.86;101449.13;5080854;28;20108;-69
2023/06/30 08:08:58;;;;;;;3.88;2.08;;;;;;;18.19;65.38;101434.81;5084539;28;20132;-69
2023/06/30 08:11:25;;;;;;;7.15;2.10;;;;;;;18.39;65.22;101450.59;5078769;28;20028;-69
2023/06/30 08:13:50;;;;;;;7.22;2.58;;;;;;;18.47;65.10;101452.84;5083709;28;20379;-69
2023/06/30 08:16:16;;;;;;;6.88;2.05;;;;;;;18.55;62.29;101444.59;5084626;28;20077;-69
2023/06/30 08:18:41;;;;;;;3.63;2.20;;;;;;;18.74;63.02;101445.47;5082324;28;20596;-69
2023/06/30 08:21:06;;;;;;;4.70;1.90;;;;;;;18.79;61.27;101418.81;5089356;28;20060;-69
2023/06/30 08:23:32;;;;;;;3.15;2.03;;;;;;;19.15;60.97;101445.22;5083212;28;20485;-69
2023/06/30 08:25:57;;;;;;;3.88;2.00;;;;;;;19.38;58.42;101447.53;5080319;28;20032;-69
2023/06/30 08:28:22;;;;;;;4.00;1.70;;;;;;;19.59;56.92;101434.19;5080584;28;20020;-69
2023/06/30 08:30:48;;;;;;;5.20;2.28;;;;;;;19.80;56.68;101443.66;5082878;28;20087;-69
2023/06/30 08:33:13;;;;;;;4.57;1.80;;;;;;;19.96;57.69;101434.91;5083077;28;20032;-74
2023/06/30 08:35:39;;;;;;;8.80;2.38;;;;;;;20.12;54.45;101435.81;5083969;28;20380;-73
2023/06/30 08:38:05;;;;;;;5.38;2.08;;;;;;;20.00;54.53;101445.25;5083341;28;20043;-74
2023/06/30 08:40:31;;;;;;;6.78;1.95;;;;;;;19.80;57.25;101441.00;5085600;28;20029;-73
2023/06/30 08:43:09;;;;;;;3.97;1.90;;;;;;;19.79;58.99;101438.47;5080635;28;20044;-74
2023/06/30 08:45:35;;;;;;;4.90;2.08;;;;;;;19.81;55.01;101433.94;5079648;28;20020;-69
2023/06/30 08:48:07;;;;;;;5.22;1.83;;;;;;;20.05;56.25;101426.50;5085551;28;20058;-69
2023/06/30 08:50:33;;;;;;;4.93;2.33;;;;;;;20.30;54.23;101421.53;5087887;28;20102;-69
2023/06/30 08:52:59;;;;;;;3.85;1.92;;;;;;;20.55;50.05;101409.63;5085046;28;20430;-69
2023/06/30 08:55:26;;;;;;;3.58;2.08;;;;;;;20.73;50.79;101410.38;5087344;28;20016;-69
2023/06/30 08:57:57;;;;;;;5.13;1.77;;;;;;;20.81;53.28;101416.97;5087615;28;20029;-69
2023/06/30 09:00:24;;;;;;;3.30;1.80;;;;;;;20.91;52.93;101411.97;5086294;28;20091;-70
2023/06/30 09:02:50;;;;;;;4.13;1.83;;;;;;;20.92;50.14;101413.69;5088550;28;20024;-69
2023/06/30 09:05:16;;;;;;;4.05;1.75;;;;;;;20.91;51.95;101406.69;5085306;28;20025;-69
2023/06/30 09:07:59;;;;;;;2.63;1.60;;;;;;;20.94;49.87;101403.84;5076048;28;20024;-70
2023/06/30 09:10:27;;;;;;;4.10;1.75;;;;;;;21.10;50.91;101401.16;5081315;28;20041;-70
2023/06/30 09:12:57;;;;;;;3.90;1.70;;;;;;;21.04;48.63;101412.97;5087678;28;20471;-70
2023/06/30 09:15:23;;;;;;;5.63;2.33;;;;;;;20.87;48.43;101405.16;5085739;28;20472;-69
2023/06/30 09:17:54;;;;;;;4.32;1.90;;;;;;;20.85;50.96;101407.03;5087385;28;20024;-69
2023/06/30 09:20:21;;;;;;;4.80;2.00;;;;;;;21.00;51.38;101413.25;5088085;28;20024;-69
2023/06/30 09:22:46;;;;;;;7.20;1.95;;;;;;;21.30;48.39;101401.78;5085392;28;20384;-69
2023/06/30 09:25:27;;;;;;;3.40;1.85;;;;;;;21.51;49.69;101403.16;5089744;28;20020;-69
2023/06/30 09:27:53;;;;;;;4.07;2.38;;;;;;;21.54;46.04;101400.34;5085598;28;20039;-69
2023/06/30 09:30:30;;;;;;;3.15;1.88;;;;;;;21.45;49.81;101379.66;5089262;28;20041;-69
2023/06/30 09:32:56;;;;;;;7.78;2.50;;;;;;;21.60;46.13;101399.13;5085989;28;20046;-69
2023/06/30 09:35:21;;;;;;;3.67;2.20;;;;;;;21.47;48.48;101388.41;5089525;28;20017;-70
2023/06/30 09:37:47;;;;;;;4.30;1.80;;;;;;;21.49;49.53;101386.50;5083218;28;20373;-70
2023/06/30 09:40:15;;;;;;;3.08;1.67;;;;;;;21.70;50.55;101394.94;5092497;28;20035;-70
2023/06/30 09:42:43;;;;;;;4.10;2.05;;;;;;;21.91;47.15;101393.63;5082770;28;20090;-70
2023/06/30 09:45:10;;;;;;;3.53;1.92;;;;;;;22.19;44.96;101397.22;5085939;28;20037;-69
2023/06/30 09:47:35;;;;;;;4.38;2.17;;;;;;;22.26;43.86;101392.38;5086714;28;20037;-69
2023/06/30 09:50:01;;;;;;;3.63;2.20;;;;;;;22.12;43.39;101391.41;5083270;28;20104;-70
2023/06/30 09:52:31;;;;;;;4.95;2.13;;;;;;;21.81;43.39;101389.84;5088477;28;20020;-70
2023/06/30 09:54:59;;;;;;;4.38;2.15;;;;;;;21.65;43.62;101386.44;5083791;28;20060;-70
2023/06/30 09:57:30;;;;;;;6.25;1.95;;;;;;;21.54;47.02;101387.06;5087434;28;20023;-69
2023/06/30 09:59:59;;;;;;;3.83;1.70;;;;;;;21.40;46.20;101387.06;5078609;28;20025;-69
2023/06/30 10:02:28;;;;;;;2.97;1.95;;;;;;;21.51;45.59;101384.59;5089254;28;20024;-69
2023/06/30 10:04:53;;;;;;;4.43;1.98;;;;;;;21.48;46.42;101375.06;5082412;28;20116;-69
2023/06/30 10:07:18;;;;;;;4.35;2.20;;;;;;;21.51;43.68;101389.91;5074845;28;20057;-69
2023/06/30 10:09:48;;;;;;;6.15;1.92;;;;;;;21.62;45.41;101384.81;5085950;28;20024;-69
2023/06/30 10:12:17;;;;;;;4.82;1.73;;;;;;;21.88;47.04;101377.91;5078874;28;20418;-69
2023/06/30 10:14:44;;;;;;;6.53;2.17;;;;;;;22.10;45.16;101381.84;5090580;28;20464;-69
2023/06/30 10:17:11;;;;;;;5.78;2.10;;;;;;;22.38;44.72;101378.31;5082340;28;20043;-70
2023/06/30 10:19:38;;;;;;;4.50;2.00;;;;;;;22.60;44.52;101373.31;5090530;28;20036;-70
2023/06/30 10:22:04;;;;;;;3.28;1.70;;;;;;;22.82;42.67;101385.16;5082805;28;20457;-70
2023/06/30 10:24:37;;;;;;;3.55;1.70;;;;;;;22.99;44.84;101376.97;5089835;28;20027;-70
2023/06/30 10:27:05;;;;;;;4.35;1.77;;;;;;;23.05;40.84;101367.72;5078587;28;20039;-69
2023/06/30 10:29:31;;;;;;;4.03;1.63;;;;;;;22.85;44.38;101363.69;5089925;28;20047;-70
2023/06/30 10:31:57;;;;;;;3.40;2.00;;;;;;;22.71;43.21;101366.44;5082818;28;20032;-69
2023/06/30 10:34:22;;;;;;;6.80;2.03;;;;;;;22.42;43.27;101362.06;5088255;28;20032;-70
2023/06/30 10:36:48;;;;;;;3.05;1.70;;;;;;;22.35;43.56;101366.06;5085302;28;20036;-69
2023/06/30 10:39:15;;;;;;;3.42;1.90;;;;;;;22.66;44.52;101359.63;5082245;28;20035;-70
2023/06/30 10:41:48;;;;;;;5.22;1.42;;;;;;;22.73;44.53;101357.41;5087118;28;20042;-69
2023/06/30 10:44:14;;;;;;;;;;;;;;;22.99;44.10;101361.03;5080021;28;20440;-69
2023/06/30 10:46:49;;;;;;;4.15;1.63;;;;;;;23.17;42.00;101363.38;5080322;28;19920;-70
2023/06/30 10:49:27;;;;;;;3.80;1.73;;;;;;;23.22;44.24;101355.94;5082976;28;20028;-69
2023/06/30 10:51:54;;;;;;;4.45;1.83;;;;;;;23.24;41.84;101354.00;5087765;28;20111;-70
2023/06/30 10:54:21;;;;;;;4.85;2.05;;;;;;;23.25;40.87;101353.06;5082423;28;20032;-69
2023/06/30 10:56:47;;;;;;;2.55;1.77;;;;;;;22.99;41.45;101344.19;5086103;28;20111;-69
2023/06/30 10:59:45;;;;;;;4.32;1.92;;;;;;;22.76;41.83;101343.03;5083954;28;20443;-70
2023/06/30 11:02:21;;;;;;;8.98;1.70;;;;;;;23.27;46.17;101349.34;5088852;28;20028;-70
2023/06/30 11:04:48;;;;;;;4.13;2.25;;;;;;;23.51;40.39;101344.13;5081900;28;20119;-69
2023/06/30 11:07:22;;;;;;;4.13;2.10;;;;;;;23.56;42.73;101331.34;5074008;28;20029;-69
2023/06/30 11:09:50;;;;;;;4.45;2.03;;;;;;;23.66;40.57;101338.69;5079042;28;20503;-70
2023/06/30 11:12:16;;;;;;;3.67;1.77;;;;;;;23.64;44.65;101338.78;5078662;28;20031;-70
2023/06/30 11:15:00;;;;;;;4.00;2.33;;;;;;;23.40;42.83;101338.69;5083327;28;20107;-70
2023/06/30 11:17:45;;;;;;;5.00;2.08;;;;;;;22.81;42.02;101322.34;5078997;28;20028;-70